• Join FlightAware (Why Join?)
  • Login
  • US Flag 
08:40PM EDT


 

Airport Tracker/Info


-or-


 

Live Flight TrackerFlight Track Log ✈ LXJ342 ✈ 23-Aug-2013 ✈ KPWK - KTUS

Flight Track Log - Related Links

Times and Time Zones

All times are in EDT time to prevent confusion due to time zone crossing. See the LXJ342 flight status page for this flight to view local times or setup timezone preferences in your user account.

Time Position Orientation Groundspeed Altitude Reporting Facility
EDT Latitude Longitude Course Direction KTS MPH feet Rate Location/Type
02:39PM 42.1000 -87.8667 249° West 198 228 1,900  Level Chicago TRACON
02:40PM 42.1500 -87.8167 37° Northeast 203 234 2,700 1,020 Climbing Chicago TRACON
02:41PM 42.2000 -87.8500 334° Northwest 221 254 4,000 840 Climbing Chicago TRACON
02:42PM 42.2167 -87.9333 285° West 230 265 4,400 900 Climbing Chicago TRACON
02:43PM 42.2136 -87.9725 264° West 237 273 5,400 2,280 Climbing Chicago Center
02:44PM 42.1844 -88.0647 247° West 266 306 8,000 2,700 Climbing Chicago Center
02:45PM 41.8508 -88.8030 249° West  Level Estimated
02:45PM 42.1497 -88.1600 244° Southwest 281 323 11,000  Level Chicago Center
02:46PM 42.1119 -88.2647 244° Southwest 305 351 13,800 2,760 Climbing Chicago Center
02:47PM 42.0675 -88.4044 247° West 336 387 16,800 2,460 Climbing Chicago Center
02:48PM 42.0294 -88.5236 247° West 344 396 19,000 1,980 Climbing Chicago Center
02:49PM 41.9892 -88.6456 246° West 357 411 21,000 1,800 Climbing Chicago Center
02:50PM 41.9489 -88.7706 247° West 367 422 22,800 1,500 Climbing Chicago Center
02:51PM 41.9072 -88.8981 246° West 373 429 24,200 1,500 Climbing Chicago Center
02:52PM 41.8561 -89.0542 246° West 383 441 26,000 1,500 Climbing Chicago Center
02:53PM 41.8131 -89.1847 246° West 387 445 27,400 1,140 Climbing Chicago Center
02:54PM 41.7703 -89.3153 246° West 385 443 28,400 960 Climbing Chicago Center
02:55PM 41.7250 -89.4483 246° West 393 452 29,400 960 Climbing Chicago Center
02:56PM 41.6781 -89.5925 246° West 398 458 30,400 960 Climbing Chicago Center
02:57PM 41.6322 -89.7281 246° West 401 461 31,400 720 Climbing Chicago Center
02:58PM 41.5864 -89.8650 246° West 403 464 32,000 720 Climbing Chicago Center
02:59PM 41.5306 -90.0319 246° West 410 472 32,900 900 Climbing Chicago Center
03:00PM 41.4833 -90.1683 245° Southwest 409 471 33,900 840 Climbing Chicago Center
03:01PM 41.4369 -90.3033 245° Southwest 405 466 34,700 600 Climbing Chicago Center
03:02PM 41.3925 -90.4369 246° West 399 459 35,200 480 Climbing Chicago Center
03:03PM 41.3461 -90.5708 245° Southwest 400 460 35,700 480 Climbing Chicago Center
03:04PM 41.2656 -90.7322 236° Southwest 438 504 36,300 480 Climbing Chicago Center
03:06PM 41.1917 -90.8583 232° Southwest 436 502 36,800 300 Climbing Chicago Center
03:07PM 41.1144 -90.9878 232° Southwest 446 513 37,000 480 Climbing Chicago Center
03:08PM 41.0350 -91.1217 232° Southwest 463 533 37,800 780 Climbing Chicago Center
03:09PM 40.9572 -91.2503 231° Southwest 450 518 38,700 960 Climbing Chicago Center
03:10PM 40.8694 -91.3975 232° Southwest 438 504 39,800 600 Climbing Chicago Center
03:11PM 40.7947 -91.5206 231° Southwest 434 499 40,000 60 Climbing Chicago Center
03:12PM 40.7181 -91.6469 231° Southwest 442 509 40,000  Level Chicago Center
03:13PM 40.6397 -91.7758 231° Southwest 453 521 40,000  Level Chicago Center
03:14PM 40.5758 -91.8786 231° Southwest 455 524 40,000  Level Kansas City Center
03:15PM 40.4803 -92.0361 231° Southwest 461 531 40,000  Level Kansas City Center
03:16PM 40.3978 -92.1667 230° Southwest 464 534 40,000  Level Kansas City Center
03:17PM 40.3164 -92.2978 231° Southwest 464 534 40,000  Level Kansas City Center
03:18PM 40.2239 -92.4411 230° Southwest 467 537 40,000  Level Kansas City Center
03:19PM 40.1450 -92.5708 232° Southwest 473 544 40,000  Level Kansas City Center
03:20PM 40.0803 -92.7325 242° Southwest 453 521 40,000  Level Kansas City Center
03:21PM 40.0308 -92.8592 243° Southwest 451 519 40,000  Level Kansas City Center
03:22PM 39.9628 -93.0336 243° Southwest 452 520 40,000  Level Kansas City Center
03:23PM 39.9050 -93.1769 242° Southwest 452 520 40,000  Level Kansas City Center
03:24PM 39.8506 -93.3244 244° Southwest 454 522 40,000  Level Kansas City Center
03:25PM 39.7922 -93.4697 242° Southwest 455 524 40,000  Level Kansas City Center
03:26PM 39.7353 -93.6158 243° Southwest 457 526 40,000  Level Kansas City Center
03:27PM 39.6697 -93.7839 243° Southwest 454 522 40,000  Level Kansas City Center
03:28PM 39.6136 -93.9222 242° Southwest 454 522 40,000  Level Kansas City Center
03:29PM 39.5486 -94.0861 243° Southwest 456 525 40,000  Level Kansas City Center
03:30PM 39.4928 -94.2258 243° Southwest 457 526 40,000  Level Kansas City Center
03:31PM 39.4272 -94.3883 242° Southwest 456 525 40,000  Level Kansas City Center
03:32PM 39.3708 -94.5269 242° Southwest 456 525 40,000  Level Kansas City Center
03:33PM 39.3064 -94.6897 243° Southwest 454 522 40,000  Level Kansas City Center
03:34PM 39.2578 -94.8317 246° West 453 521 40,000  Level Kansas City Center
03:35PM 39.1997 -95.0011 246° West 452 520 40,000  Level Kansas City Center
03:36PM 39.1472 -95.1533 246° West 461 531 40,000  Level Kansas City Center
03:37PM 39.0906 -95.3125 245° Southwest 457 526 40,000  Level Kansas City Center
03:38PM 39.0403 -95.4619 247° West 453 521 40,000  Level Kansas City Center
03:39PM 38.9903 -95.6042 246° West 453 521 40,000  Level Kansas City Center
03:40PM 38.9314 -95.7692 245° Southwest 455 524 40,000  Level Kansas City Center
03:42PM 38.8811 -95.9125 246° West 458 527 40,000  Level Kansas City Center
03:43PM 38.8308 -96.0539 246° West 456 525 40,000  Level Kansas City Center
03:44PM 38.7719 -96.2194 246° West 457 526 40,000  Level Kansas City Center
03:45PM 38.7200 -96.3606 245° Southwest 457 526 40,000  Level Kansas City Center
03:46PM 38.6608 -96.5264 245° Southwest 459 528 40,000  Level Kansas City Center
03:47PM 38.6092 -96.6689 245° Southwest 460 529 40,000  Level Kansas City Center
03:48PM 38.5508 -96.8275 245° Southwest 466 536 40,000  Level Kansas City Center
03:49PM 38.4961 -96.9775 245° Southwest 466 536 40,000  Level Kansas City Center
03:50PM 38.4408 -97.1286 245° Southwest 470 541 40,000  Level Kansas City Center
03:51PM 38.3850 -97.2778 245° Southwest 468 539 40,000  Level Kansas City Center
03:52PM 38.3197 -97.4558 245° Southwest 466 536 40,000  Level Kansas City Center
03:53PM 38.2642 -97.6042 245° Southwest 465 535 40,000  Level Kansas City Center
03:54PM 38.2089 -97.7506 244° Southwest 463 533 40,000  Level Kansas City Center
03:55PM 38.1525 -97.9042 245° Southwest 464 534 40,000  Level Kansas City Center
03:56PM 38.0972 -98.0533 245° Southwest 466 536 40,000  Level Kansas City Center
03:57PM 38.0328 -98.2164 243° Southwest 463 533 40,000  Level Kansas City Center
03:58PM 37.9772 -98.3608 244° Southwest 460 529 40,000  Level Kansas City Center
03:59PM 37.9211 -98.5050 244° Southwest 460 529 40,000  Level Kansas City Center
04:00PM 37.8636 -98.6508 243° Southwest 461 531 40,000  Level Kansas City Center
04:01PM 37.8083 -98.7975 245° Southwest 465 535 40,000  Level Kansas City Center
04:02PM 37.7358 -98.9683 242° Southwest 462 532 40,000  Level Kansas City Center
04:03PM 37.6811 -99.1122 244° Southwest 458 527 40,000  Level Kansas City Center
04:04PM 37.6231 -99.2564 243° Southwest 459 528 40,000  Level Kansas City Center
04:05PM 37.5658 -99.4000 243° Southwest 459 528 40,000  Level Kansas City Center
04:06PM 37.5042 -99.5631 245° Southwest 449 517 40,000  Level Kansas City Center
04:07PM 37.4478 -99.7006 243° Southwest 456 525 40,000  Level Kansas City Center
04:08PM 37.3831 -99.8611 243° Southwest 459 528 40,000  Level Kansas City Center
04:09PM 37.3272 -99.9994 243° Southwest 461 531 40,000  Level Kansas City Center
04:10PM 37.2622 -100.1597 243° Southwest 461 531 40,000  Level Kansas City Center
04:12PM 37.2044 -100.2983 242° Southwest 463 533 40,000  Level Kansas City Center
04:13PM 37.1472 -100.4367 243° Southwest 465 535 40,000  Level Kansas City Center
04:14PM 37.0806 -100.5992 243° Southwest 466 536 40,000  Level Kansas City Center
04:15PM 37.0228 -100.7392 243° Southwest 469 540 40,000  Level Kansas City Center
04:16PM 36.9544 -100.9014 242° Southwest 470 541 40,000  Level Kansas City Center
04:17PM 36.8967 -101.0394 242° Southwest 468 539 40,000  Level Kansas City Center
04:18PM 36.8289 -101.2008 242° Southwest 468 539 40,000  Level Kansas City Center
04:19PM 36.7703 -101.3397 242° Southwest 470 541 40,000  Level Kansas City Center
04:20PM 36.7017 -101.5006 242° Southwest 469 540 40,000  Level Kansas City Center
04:21PM 36.6436 -101.6389 242° Southwest 470 541 40,000  Level Kansas City Center
04:21PM 36.6053 -101.7308 243° Southwest 469 540 40,000  Level Albuquerque Center
04:22PM 36.5400 -101.8833 242° Southwest 467 537 40,000  Level Albuquerque Center
04:24PM 36.4792 -102.0228 242° Southwest 465 535 40,000  Level Albuquerque Center
04:25PM 36.4186 -102.1619 242° Southwest 462 532 40,000  Level Albuquerque Center
04:26PM 36.3583 -102.3022 242° Southwest 462 532 40,000  Level Albuquerque Center
04:27PM 36.2978 -102.4386 241° Southwest 458 527 40,000  Level Albuquerque Center
04:28PM 36.2256 -102.6033 242° Southwest 456 525 40,000  Level Albuquerque Center
04:29PM 36.1664 -102.7389 242° Southwest 452 520 40,000  Level Albuquerque Center
04:30PM 36.1044 -102.8750 241° Southwest 455 524 40,000  Level Albuquerque Center
04:31PM 36.0394 -103.0250 242° Southwest 456 525 40,000  Level Albuquerque Center
04:32PM 35.9756 -103.1642 240° Southwest 460 529 40,000  Level Albuquerque Center
04:33PM 35.9136 -103.3028 241° Southwest 459 528 40,000  Level Albuquerque Center
04:34PM 35.8511 -103.4439 241° Southwest 465 535 40,000  Level Albuquerque Center
04:35PM 35.7878 -103.5831 241° Southwest 463 533 40,000  Level Albuquerque Center
04:36PM 35.7247 -103.7228 241° Southwest 464 534 40,000  Level Albuquerque Center
04:37PM 35.6506 -103.8847 241° Southwest 463 533 40,000  Level Albuquerque Center
04:38PM 35.5875 -104.0236 241° Southwest 465 535 40,000  Level Albuquerque Center
04:39PM 35.5261 -104.1600 241° Southwest 459 528 40,000  Level Albuquerque Center
04:40PM 35.4636 -104.2939 240° Southwest 455 524 40,000  Level Albuquerque Center
04:41PM 35.4017 -104.4267 240° Southwest 452 520 40,000  Level Albuquerque Center
04:42PM 35.3347 -104.5672 240° Southwest 448 516 40,000  Level Albuquerque Center
04:43PM 35.2672 -104.7108 240° Southwest 445 512 40,000  Level Albuquerque Center
04:44PM 35.2053 -104.8428 240° Southwest 445 512 40,000  Level Albuquerque Center
04:45PM 35.1439 -104.9742 240° Southwest 442 509 40,000  Level Albuquerque Center
04:46PM 35.0825 -105.1047 240° Southwest 442 509 40,000  Level Albuquerque Center
04:47PM 35.0197 -105.2361 240° Southwest 444 511 40,000  Level Albuquerque Center
04:48PM 34.9561 -105.3664 239° Southwest 443 510 40,000  Level Albuquerque Center
04:49PM 34.8969 -105.4986 241° Southwest 442 509 40,000  Level Albuquerque Center
04:50PM 34.8422 -105.6508 246° West 447 514 40,000  Level Albuquerque Center
04:51PM 34.7869 -105.8019 246° West 448 516 40,000  Level Albuquerque Center
04:52PM 34.7369 -105.9278 244° Southwest 449 517 40,000  Level Albuquerque Center
04:53PM 34.6831 -106.0667 245° Southwest 452 520 40,000  Level Albuquerque Center
04:54PM 34.6278 -106.2042 244° Southwest 452 520 40,000  Level Albuquerque Center
04:55PM 34.5639 -106.3361 240° Southwest 447 514 40,000  Level Albuquerque Center
04:56PM 34.4806 -106.4492 228° Southwest 446 513 40,000  Level Albuquerque Center
04:58PM 34.3836 -106.5853 229° Southwest 450 518 40,000  Level Albuquerque Center
04:59PM 34.2983 -106.7017 228° Southwest 451 519 40,000  Level Albuquerque Center
05:00PM 34.2144 -106.8142 228° Southwest 449 517 40,000  Level Albuquerque Center
05:01PM 34.1336 -106.9303 230° Southwest 450 518 40,000  Level Albuquerque Center
05:02PM 34.0506 -107.0458 229° Southwest 452 520 40,000  Level Albuquerque Center
05:03PM 33.9661 -107.1622 229° Southwest 446 513 40,000  Level Albuquerque Center
05:04PM 33.8878 -107.2692 229° Southwest 445 512 40,000  Level Albuquerque Center
05:05PM 33.8067 -107.3814 229° Southwest 443 510 40,000  Level Albuquerque Center
05:06PM 33.7233 -107.4958 229° Southwest 443 510 40,000  Level Albuquerque Center
05:07PM 33.6422 -107.6053 228° Southwest 441 507 40,000 -60 Level Albuquerque Center
05:08PM 33.5461 -107.7353 228° Southwest 437 503 39,900 -300 Descending Albuquerque Center
05:09PM 33.4661 -107.8433 228° Southwest 436 502 39,500 -720 Descending Albuquerque Center
05:10PM 33.3842 -107.9544 229° Southwest 439 505 38,500 -1,020 Descending Albuquerque Center
05:11PM 33.3006 -108.0656 228° Southwest 445 512 37,500 -1,020 Descending Albuquerque Center
05:12PM 33.2147 -108.1664 225° Southwest 443 510 36,500 -1,020 Descending Albuquerque Center
05:13PM 33.1281 -108.2661 224° Southwest 438 504 35,500 -1,020 Descending Albuquerque Center
05:14PM 33.0361 -108.3725 224° Southwest 436 502 34,400 -1,020 Descending Albuquerque Center
05:15PM 32.9469 -108.4761 224° Southwest 441 507 33,400 -840 Descending Albuquerque Center
05:16PM 32.8572 -108.5797 224° Southwest 446 513 32,800 -600 Descending Albuquerque Center
05:17PM 32.7492 -108.7050 224° Southwest 446 513 32,200 -600 Descending Albuquerque Center
05:18PM 32.6589 -108.8089 224° Southwest 447 514 31,600 -540 Descending Albuquerque Center
05:19PM 32.5700 -108.9117 224° Southwest 445 512 31,100 -720 Descending Albuquerque Center
05:20PM 32.4819 -109.0133 224° Southwest 441 507 30,200 -1,020 Descending Albuquerque Center
05:21PM 32.3933 -109.1156 224° Southwest 442 509 29,000 -1,080 Descending Albuquerque Center
05:22PM 32.3067 -109.2139 224° Southwest 436 502 28,000 -1,080 Descending Albuquerque Center
05:23PM 32.2542 -109.3439 245° Southwest 460 529 26,900 -1,320 Descending Albuquerque Center
05:24PM 32.2431 -109.4903 265° West 451 519 25,300 -1,620 Descending Albuquerque Center
05:25PM 32.2297 -109.6361 264° West 450 518 23,600 -1,860 Descending Albuquerque Center
05:26PM 32.2111 -109.8017 262° West 432 497 21,500 -1,920 Descending Albuquerque Center
05:27PM 32.1958 -109.9350 262° West 416 479 19,700 -1,860 Descending Albuquerque Center
05:28PM 32.1856 -110.0708 265° West 415 478 17,800 -1,860 Descending Albuquerque Center
05:29PM 32.1728 -110.1750 262° West 376 433 16,300 -1,860 Descending Albuquerque Center
05:30PM 32.1575 -110.2900 261° West 362 417 14,500 -1,920 Descending Albuquerque Center
05:31PM 32.1072 -110.3822 237° Southwest 333 383 12,500 -1,800 Descending Albuquerque Center
05:32PM 32.0772 -110.4786 250° West 313 360 10,900 -1,260 Descending Albuquerque Center
05:33PM 32.0514 -110.5639 250° West 282 325 10,000 -1,380 Descending Albuquerque Center
05:34PM 32.0292 -110.6456 252° West 264 304 8,200 -1,920 Descending Albuquerque Center
05:35PM 32.0122 -110.7331 257° West 270 311 6,200 -1,440 Descending Albuquerque Center
05:36PM 32.0108 -110.8139 269° West 249 287 5,300 -1,080 Descending Albuquerque Center
05:37PM 32.0561 -110.8697 314° West 219 252 4,100 -1,140 Descending Albuquerque Center
05:38PM 32.0925 -110.9125 315° West 161 185 3,000 -1,020 Descending Albuquerque Center